Position Fahrer Laps Zeit Diff Beste Runde Fahrzeug Status Gesamt Bonuspunkte Strafpunkte
1 Felix Arndt 14 26:45.302 - 1:52.912 BMW M2 CS Racing Beendet 102 2 0
2 Leon Augustat 14 26:48.838 0:03.536 1:53.237 BMW M2 CS Racing Beendet 94 0 0
3 Max Schwanke 14 26:57.015 0:11.713 1:53.900 BMW M2 CS Racing Beendet 89 0 0
4 Leon Harhoff 14 27:03.819 0:18.517 1:53.537 BMW M2 CS Racing Beendet 85 0 0
5 Noel Dohr 14 27:10.910 0:25.608 1:54.975 BMW M2 CS Racing Beendet 81 0 0
6 René Wagner 14 27:11.400 0:26.098 1:54.540 BMW M2 CS Racing Beendet 77 0 0
7 Christian Nesmiyan 14 27:17.978 0:32.676 1:54.285 BMW M2 CS Racing Beendet 73 0 0
8 Huck Norbert 14 27:23.558 0:38.256 1:55.975 BMW M2 CS Racing Beendet 70 0 0
9 Nico Kaluza 14 27:28.443 0:43.141 1:54.817 BMW M2 CS Racing Beendet 67 0 0
10 Jan-Erik Tügel 14 27:31.679 0:46.377 1:53.757 BMW M2 CS Racing Beendet 64 0 0
11 Michael Klose 14 27:32.837 0:47.535 1:55.740 BMW M2 CS Racing Beendet 61 0 0
12 Arnold Hausmann 14 27:33.422 0:48.120 1:55.732 BMW M2 CS Racing Beendet 58 0 0
13 Bernhard Schwab 14 27:34.830 0:49.528 1:55.647 BMW M2 CS Racing Beendet 40 0 15
14 Sebastian Ponath 14 27:40.901 0:55.599 1:57.097 BMW M2 CS Racing Beendet 49 0 3
15 Marcel Kühnel 14 27:41.404 0:56.102 1:55.977 BMW M2 CS Racing Beendet 49 0 0
16 Tim Hallmann 14 27:45.538 1:00.236 1:56.662 BMW M2 CS Racing Beendet 46 0 0
17 Rico Eichhorn 14 28:20.482 1:35.180 1:56.935 BMW M2 CS Racing Beendet 43 0 0
18 Andreas Wagner 14 28:22.619 1:37.317 1:56.855 BMW M2 CS Racing Beendet 40 0 0
19 Dennis Smith 14 28:23.815 1:38.513 1:55.345 BMW M2 CS Racing Beendet 38 0 0
20 Daniel Rabenstein 13 27:51.910 -1L 1:56.172 BMW M2 CS Racing Beendet 36 0 0
21 René Patzer 4 08:15.408 -10L 1:58.865 BMW M2 CS Racing Beendet 0 0 0

Rennverlauf

Die schnellsten 5 pro Runde

Runde 1

Pos Rennpos Fahrer Zeit Diff
1 1 Noel Dohr 1:59.570 -
2 2 Huck Norbert 2:00.682 0:01.112
3 3 Dennis Smith 2:01.131 0:01.561
4 4 Marcel Kühnel 2:02.344 0:02.774
5 5 Felix Arndt 2:02.791 0:03.221

Runde 2

Pos Rennpos Fahrer Zeit Diff
1 4 Leon Augustat 1:55.825 -
2 1 Noel Dohr 1:55.827 0:00.002
3 13 Christian Nesmiyan 1:56.165 0:00.340
4 6 René Wagner 1:56.270 0:00.445
5 7 Nico Kaluza 1:56.375 0:00.550

Runde 3

Pos Rennpos Fahrer Zeit Diff
1 13 Leon Harhoff 1:54.332 -
2 3 Felix Arndt 1:54.587 0:00.255
3 4 Leon Augustat 1:54.652 0:00.320
4 5 Max Schwanke 1:55.137 0:00.805
5 18 Jan-Erik Tügel 1:55.177 0:00.845

Runde 4

Pos Rennpos Fahrer Zeit Diff
1 2 Felix Arndt 1:53.585 -
2 3 Leon Augustat 1:54.980 0:01.395
3 9 Christian Nesmiyan 1:55.017 0:01.432
4 4 Max Schwanke 1:55.162 0:01.577
5 14 Nico Kaluza 1:55.165 0:01.580

Runde 5

Pos Rennpos Fahrer Zeit Diff
1 10 Leon Harhoff 1:53.915 -
2 9 Christian Nesmiyan 1:54.285 0:00.370
3 2 Leon Augustat 1:54.310 0:00.395
4 1 Felix Arndt 1:54.785 0:00.870
5 4 Max Schwanke 1:54.935 0:01.020

Runde 6

Pos Rennpos Fahrer Zeit Diff
1 1 Felix Arndt 1:53.507 -
2 2 Leon Augustat 1:53.517 0:00.010
3 9 Leon Harhoff 1:53.700 0:00.193
4 5 René Wagner 1:54.540 0:01.033
5 3 Max Schwanke 1:54.545 0:01.038

Runde 7

Pos Rennpos Fahrer Zeit Diff
1 1 Felix Arndt 1:53.350 -
2 3 Max Schwanke 1:54.537 0:01.187
3 2 Leon Augustat 1:54.715 0:01.365
4 4 Noel Dohr 1:54.975 0:01.625
5 15 Jan-Erik Tügel 1:55.440 0:02.090

Runde 8

Pos Rennpos Fahrer Zeit Diff
1 1 Felix Arndt 1:52.912 -
2 6 Leon Harhoff 1:53.842 0:00.930
3 3 Max Schwanke 1:53.900 0:00.988
4 15 Jan-Erik Tügel 1:53.975 0:01.063
5 2 Leon Augustat 1:54.027 0:01.115

Runde 9

Pos Rennpos Fahrer Zeit Diff
1 1 Felix Arndt 1:53.542 -
2 2 Leon Augustat 1:53.752 0:00.210
3 6 Leon Harhoff 1:53.990 0:00.448
4 3 Max Schwanke 1:54.722 0:01.180
5 5 René Wagner 1:55.105 0:01.563

Runde 10

Pos Rennpos Fahrer Zeit Diff
1 1 Felix Arndt 1:53.330 -
2 2 Leon Augustat 1:53.697 0:00.367
3 5 Leon Harhoff 1:53.742 0:00.412
4 3 Max Schwanke 1:54.687 0:01.357
5 12 Jan-Erik Tügel 1:54.910 0:01.580

Runde 11

Pos Rennpos Fahrer Zeit Diff
1 1 Felix Arndt 1:53.627 -
2 2 Leon Augustat 1:53.810 0:00.183
3 3 Max Schwanke 1:54.047 0:00.420
4 12 Jan-Erik Tügel 1:54.582 0:00.955
5 13 Nico Kaluza 1:54.885 0:01.258

Runde 12

Pos Rennpos Fahrer Zeit Diff
1 1 Felix Arndt 1:53.462 -
2 2 Leon Augustat 1:53.505 0:00.043
3 4 Leon Harhoff 1:53.575 0:00.113
4 3 Max Schwanke 1:54.420 0:00.958
5 11 Jan-Erik Tügel 1:54.477 0:01.015

Runde 13

Pos Rennpos Fahrer Zeit Diff
1 2 Leon Augustat 1:53.237 -
2 11 Jan-Erik Tügel 1:53.757 0:00.520
3 1 Felix Arndt 1:54.112 0:00.875
4 4 Leon Harhoff 1:54.155 0:00.918
5 3 Max Schwanke 1:54.510 0:01.273

Runde 14

Pos Rennpos Fahrer Zeit Diff
1 4 Leon Harhoff 1:53.537 -
2 2 Leon Augustat 1:53.610 0:00.073
3 1 Felix Arndt 1:53.662 0:00.125
4 7 Christian Nesmiyan 1:54.472 0:00.935
5 3 Max Schwanke 1:55.000 0:01.463

SERVER

0 / 61
virtualracing.org #1 GTM
Training 1Lime Rock Park -- Uphill Chicane
0 / 81
virtualracing.org #3 FS
Training 1Lime Rock Park -- Uphill Chicane
0 / 81
virtualracing.org #4 LSM
Training 1Spa-Francorchamps Endurance
0 / 34
virtualracing.org #5 VRF1S
Training 1Barcelona 2021
1 / 34
virtualracing.org #6 VRCS
Training 1Donington Park National Circuit
0 / 81
virtualracing.org #P1 BTCC
Training 1Brands Hatch GP
0 / 81
virtualracing.org #P2 CA
Training 1Silverstone Historic Chicane
0 / 34
virtualracing.org #P3 Mini
Training 1Silverstone Grand Prix
0 / 33
virtualracing.org #P4 IR18
Training 1Louisiana -- Indy Grand Prix
0 / 104
virtualracing.org VRES L
TesttagNuerburgring -- rF2LN 24h
4 / 104
virtualracing.org VRES T
TesttagNuerburgring -- rF2LN 24h
0/31
virtualracing.org#4 GTC Training Standard
TrainingCircuito de Jerez - GP
0/31
virtualracing.org#5 GTC Training A
TrainingDaytona International Speedway - Road Course
0/16
virtualracing.org#30 ALT Training
Trainingaa_dover_speedway-nh